Дата Пункты Температура Давл., мм. Влажн., % Ветер Погодные явления
Воздуха Воды Направл. Скорость
23.04.19 03:00 Одесса 8.0 10.0 766 64 Пн-З 1 03 ГОДИНИ
22.04.19 09:00 Одесса 10.0 10.0 766 51 З 2 21 ГОДИНУ
22.04.19 06:00 Одесса 15.0 10.0 765 33 Пн 0 18 ГОДИН
22.04.19 03:00 Одесса 15.0 10.0 766 21 Пд-С 2 15 ГОДИН
22.04.19 12:00 Одесса 12.0 10.0 766 58 Пн-С 2 12 ГОДИН
22.04.19 09:00 Одесса 11.0 10.0 765 49 Пн 2 09 ГОДИН
22.04.19 06:00 Одесса 8.0 10.0 764 50 Пн 2 06 ГОДИН
22.04.19 03:00 Одесса 6.0 10.0 764 65 Пн 1 03 ГОДИНИ
21.04.19 09:00 Одесса 9.0 10.0 764 50 З 2 21 ГОДИНУ
21.04.19 06:00 Одесса 13.0 10.0 764 30 Пд 2 18 ГОДИН
21.04.19 03:00 Одесса 13.0 10.0 764 32 Пд 2 15 ГОДИН
21.04.19 12:00 Одесса 10.0 10.0 765 72 Пд-С 2 12 ГОДИН
21.04.19 09:00 Одесса 11.0 10.0 764 58 Пн-С 1 09 ГОДИН
21.04.19 06:00 Одесса 5.0 10.0 764 58 З 2 06 ГОДИН
21.04.19 03:00 Одесса 6.0 10.0 764 58 З 2 03 ГОДИНИ
20.04.19 09:00 Одесса 9.0 10.0 765 45 З 1 21 ГОДИНУ
20.04.19 06:00 Одесса 12.0 10.0 765 41 Пд 2 18 ГОДИН
20.04.19 03:00 Одесса 12.0 10.0 766 58 С 3 15 ГОДИН
20.04.19 12:00 Одесса 11.0 9.0 766 54 Пн-С 6 12 ГОДИН
20.04.19 09:00 Одесса 9.0 9.0 766 56 Пн 4 09 ГОДИН
Количество строк
1 2 3 4 5 6 7 8 9 10
Page 1 of 481